Holly Hill, Florida
Current Conditions -  °F | °C
As of 12:53 AM on Saturday 25 Oct 2014 (Local Time) from KDAB Reporting Station
Scattered Clouds Scattered Clouds  
Wind Chill: 62°   Ceiling: Unl
Heat Index: 62°   Visibility: 10mi
Dew Point: 57°   Wind: 5mph
Humidity: 84%   Direction: 300°WNW
Pressure: 29.97"   Gusts: NA
Location:  29.25°N, 81.04°W
Report Text: KDAB 250453Z 30004KT 10SM SCT048 17/14 A2997 RMK AO2 SLP148 T01670139 402560133
Loading
Personal Weather Stations






























Interactive Weather Map
Tropical Storm Tracking
New forecast layout! Learn more

10-Day Weather Forecast

Advertisements
Track Severe Weather on mobile